Brunson, South Carolina
Current Conditions -  °F | °C
As of 3:15 PM on Monday 24 Nov 2014 (Local Time) from KAQX Reporting Station
Thunderstorm Thunderstorm  
Wind Chill: 70°   Ceiling: 1300
Heat Index: 70°   Visibility: 7mi
Dew Point: 68°   Wind: 5mph
Humidity: 94%   Direction: 190°S
Pressure: 29.85"   Gusts: NA
Location:  32.93°N, 81.19°W
Report Text: KAQX 242015Z AUTO 19004KT 7SM VCTS SCT008 BKN013 OVC065 21/20 A2985 RMK AO2 LTG DSNT SW
Loading
Personal Weather Stations






























Interactive Weather Map New forecast layout! Learn more

10-Day Weather Forecast

Advertisements
Track Severe Weather on mobile